Time;durP1;ratioP1;P1;durP2;ratioP2;P2;SDS_P1;SDS_P2;PMS_P1;PMS_P2;Temp;Humidity;BMP_temperature;BMP_pressure;BME280_temperature;BME280_humidity;BME280_pressure;Samples;Min_cycle;Max_cycle;Signal;HPM_P1;HPM_P2
2021/12/07 00:01:23;;;;;;;2.78;1.20;;;2.70;99.90;;;;;;5021193;28;20042;-57
2021/12/07 00:03:49;;;;;;;2.00;1.33;;;2.70;99.90;;;;;;5023208;28;20060;-57
2021/12/07 00:06:16;;;;;;;3.80;1.27;;;2.60;99.90;;;;;;5022188;28;20133;-57
2021/12/07 00:08:43;;;;;;;1.48;1.05;;;2.70;99.90;;;;;;5022910;28;20103;-57
2021/12/07 00:11:10;;;;;;;3.33;1.15;;;2.70;99.90;;;;;;5021586;28;20095;-57
2021/12/07 00:13:39;;;;;;;2.47;1.00;;;2.70;99.90;;;;;;5022548;28;20124;-58
2021/12/07 00:16:07;;;;;;;2.47;1.08;;;2.70;99.90;;;;;;5021992;28;20053;-58
2021/12/07 00:18:35;;;;;;;1.70;0.80;;;2.70;99.90;;;;;;5022770;28;20316;-58
2021/12/07 00:21:02;;;;;;;2.30;0.93;;;2.70;99.90;;;;;;5022267;28;20096;-58
2021/12/07 00:23:29;;;;;;;4.28;1.17;;;2.80;99.90;;;;;;5022990;28;20076;-57
2021/12/07 00:25:56;;;;;;;2.28;0.88;;;2.80;99.90;;;;;;5019490;28;20049;-58
2021/12/07 00:28:23;;;;;;;2.72;0.80;;;2.80;99.90;;;;;;5022573;28;20785;-58
2021/12/07 00:30:51;;;;;;;2.00;0.82;;;2.80;99.90;;;;;;5021719;28;20505;-58
2021/12/07 00:35:52;;;;;;;4.63;1.42;;;2.90;99.90;;;;;;5021727;28;20124;-58
2021/12/07 00:38:20;;;;;;;2.58;1.13;;;2.90;99.90;;;;;;5022842;28;20049;-58
2021/12/07 00:40:47;;;;;;;3.92;1.20;;;3.00;99.90;;;;;;5022429;28;20740;-58
2021/12/07 00:43:14;;;;;;;2.95;1.25;;;3.00;99.90;;;;;;5022494;28;20132;-58
2021/12/07 00:45:43;;;;;;;4.78;1.50;;;3.10;99.90;;;;;;5021099;28;20080;-59
2021/12/07 00:48:10;;;;;;;2.30;1.27;;;3.10;99.90;;;;;;5022680;28;20543;-57
2021/12/07 00:50:37;;;;;;;2.60;1.45;;;3.10;99.90;;;;;;5022348;28;20140;-57
2021/12/07 00:53:05;;;;;;;2.63;1.23;;;3.20;99.90;;;;;;5020638;28;20081;-58
2021/12/07 00:55:35;;;;;;;3.47;1.58;;;3.20;99.90;;;;;;5010739;28;20092;-58
2021/12/07 00:58:09;;;;;;;3.50;1.08;;;3.20;99.90;;;;;;5009116;28;20398;-58
2021/12/07 01:00:36;;;;;;;2.63;1.02;;;3.20;99.90;;;;;;5021113;28;20121;-57
2021/12/07 01:03:03;;;;;;;2.85;1.20;;;3.10;99.90;;;;;;5022454;28;20049;-58
2021/12/07 01:05:33;;;;;;;3.03;1.45;;;3.20;99.90;;;;;;5020923;28;20041;-57
2021/12/07 01:27:06;;;;;;;2.58;1.17;;;3.10;99.90;;;;;;5024894;28;20538;-57
2021/12/07 01:29:34;;;;;;;2.92;1.50;;;3.10;99.90;;;;;;5023713;28;20137;-58
2021/12/07 01:37:32;;;;;;;3.97;1.00;;;3.10;99.90;;;;;;5024873;28;20081;-58
2021/12/07 01:49:54;;;;;;;1.98;1.13;;;3.00;99.90;;;;;;5023771;28;20091;-58
2021/12/07 02:01:54;;;;;;;5.38;1.15;;;2.90;99.90;;;;;;5015652;28;20046;-58
2021/12/07 02:04:21;;;;;;;3.72;1.38;;;2.90;99.90;;;;;;5020022;28;20042;-57
2021/12/07 02:06:48;;;;;;;7.82;2.17;;;3.00;99.90;;;;;;5020479;28;20457;-58
2021/12/07 02:09:15;;;;;;;4.32;1.27;;;3.00;99.90;;;;;;5021127;28;20088;-58
2021/12/07 02:11:48;;;;;;;3.03;1.15;;;3.00;99.90;;;;;;5020250;28;20132;-58
2021/12/07 02:14:16;;;;;;;2.08;1.00;;;3.00;99.90;;;;;;5018952;28;20624;-58
2021/12/07 02:16:47;;;;;;;3.05;0.93;;;3.00;99.90;;;;;;5018567;28;20134;-58
2021/12/07 02:19:15;;;;;;;2.47;0.80;;;3.00;99.90;;;;;;5020557;28;20076;-57
2021/12/07 02:21:41;;;;;;;2.97;1.05;;;2.90;99.90;;;;;;5020626;28;20133;-58
2021/12/07 02:24:08;;;;;;;3.67;1.25;;;3.00;99.90;;;;;;5021568;28;20469;-57
2021/12/07 02:26:35;;;;;;;3.70;1.08;;;2.90;99.90;;;;;;5024465;28;20076;-58
2021/12/07 02:29:03;;;;;;;2.40;1.00;;;3.00;99.90;;;;;;5024734;28;20092;-58
2021/12/07 02:31:30;;;;;;;2.75;1.23;;;2.90;99.90;;;;;;5023540;28;20211;-57
2021/12/07 02:33:57;;;;;;;2.65;1.10;;;3.00;99.90;;;;;;5020633;28;20057;-57
2021/12/07 02:36:23;;;;;;;3.47;1.70;;;3.00;99.90;;;;;;5025219;28;20144;-56
2021/12/07 02:38:50;;;;;;;3.63;1.42;;;3.00;99.90;;;;;;5025866;28;20049;-58
2021/12/07 02:41:17;;;;;;;1.90;0.90;;;3.00;99.90;;;;;;5017701;28;20144;-57
2021/12/07 02:43:44;;;;;;;2.88;1.08;;;3.00;99.90;;;;;;5012552;28;20144;-58
2021/12/07 02:46:11;;;;;;;2.83;1.00;;;3.00;99.90;;;;;;5020247;28;20060;-57
2021/12/07 02:48:38;;;;;;;1.85;0.82;;;3.00;99.90;;;;;;5009405;28;20207;-58
2021/12/07 02:51:04;;;;;;;3.10;0.77;;;3.00;99.90;;;;;;5026371;28;20307;-57
2021/12/07 02:53:32;;;;;;;3.25;1.42;;;3.00;99.90;;;;;;5024451;28;20124;-58
2021/12/07 02:56:00;;;;;;;2.25;0.93;;;2.90;99.90;;;;;;5024770;28;20076;-58
2021/12/07 02:58:27;;;;;;;4.03;1.10;;;3.00;99.90;;;;;;5026516;28;20163;-58
2021/12/07 03:01:02;;;;;;;5.03;1.08;;;3.00;99.90;;;;;;5024777;28;20076;-56
2021/12/07 03:03:33;;;;;;;2.05;1.00;;;3.00;99.90;;;;;;5026597;28;20107;-58
2021/12/07 03:06:22;;;;;;;3.50;0.88;;;3.00;99.90;;;;;;5027386;28;20135;-57
2021/12/07 03:28:08;;;;;;;2.45;0.80;;;3.10;99.90;;;;;;5027144;28;20076;-58
2021/12/07 03:30:35;;;;;;;2.65;0.90;;;3.10;99.90;;;;;;5026422;28;20141;-55
2021/12/07 03:33:03;;;;;;;2.05;0.73;;;3.10;99.90;;;;;;5026987;28;20142;-58
2021/12/07 03:35:30;;;;;;;2.45;0.68;;;3.10;99.90;;;;;;5026257;28;20127;-58
2021/12/07 03:37:57;;;;;;;3.25;0.70;;;3.10;99.90;;;;;;5025160;28;20084;-58
2021/12/07 03:40:24;;;;;;;1.15;0.70;;;3.00;99.90;;;;;;5026980;28;20505;-58
2021/12/07 03:42:51;;;;;;;1.15;0.70;;;2.90;99.90;;;;;;5026509;28;20088;-57
2021/12/07 03:45:17;;;;;;;2.42;0.50;;;2.90;99.90;;;;;;5025422;28;20189;-57
2021/12/07 03:47:44;;;;;;;2.03;0.80;;;2.80;99.90;;;;;;5026903;28;20497;-57
2021/12/07 03:50:11;;;;;;;2.60;0.68;;;2.80;99.90;;;;;;5026788;28;20505;-54
2021/12/07 03:52:38;;;;;;;1.90;0.73;;;2.70;99.90;;;;;;5027120;28;20045;-57
2021/12/07 03:55:06;;;;;;;1.58;0.70;;;2.60;99.90;;;;;;5026008;28;20137;-57
2021/12/07 03:57:33;;;;;;;1.92;0.80;;;2.60;99.90;;;;;;5025831;28;20526;-58
2021/12/07 04:00:00;;;;;;;1.92;0.98;;;2.50;99.90;;;;;;5024840;28;20531;-58
2021/12/07 04:02:26;;;;;;;1.85;0.70;;;2.50;99.90;;;;;;5021790;28;20106;-58
2021/12/07 04:05:00;;;;;;;2.15;0.68;;;2.40;99.90;;;;;;5025822;28;20128;-57
2021/12/07 04:07:26;;;;;;;2.05;0.73;;;2.50;99.90;;;;;;5026742;28;20141;-56
2021/12/07 04:09:53;;;;;;;3.45;0.73;;;2.50;99.90;;;;;;5026080;28;20599;-58
2021/12/07 04:12:20;;;;;;;1.92;0.70;;;2.50;99.90;;;;;;5026251;28;20692;-57
2021/12/07 04:14:47;;;;;;;2.33;0.80;;;2.50;99.90;;;;;;5024536;28;20141;-58
2021/12/07 04:17:13;;;;;;;3.10;0.70;;;2.50;99.90;;;;;;5026443;28;20120;-58
2021/12/07 04:19:40;;;;;;;4.00;0.80;;;2.50;99.90;;;;;;5025200;28;20092;-56
2021/12/07 04:22:07;;;;;;;4.03;1.15;;;2.50;99.90;;;;;;5008889;28;20077;-58
2021/12/07 04:24:34;;;;;;;1.95;0.75;;;2.40;99.90;;;;;;5025837;28;20049;-55
2021/12/07 04:27:00;;;;;;;1.80;0.68;;;2.40;99.90;;;;;;5026771;28;20149;-58
2021/12/07 04:29:27;;;;;;;2.08;0.65;;;2.40;99.90;;;;;;5025028;28;20414;-57
2021/12/07 04:31:54;;;;;;;2.40;1.13;;;2.40;99.90;;;;;;5026174;28;20079;-58
2021/12/07 04:34:20;;;;;;;2.78;0.88;;;2.40;99.90;;;;;;5024770;28;20112;-58
2021/12/07 04:36:47;;;;;;;2.33;0.77;;;2.40;99.90;;;;;;5026154;28;20539;-58
2021/12/07 04:39:14;;;;;;;1.52;0.60;;;2.30;99.90;;;;;;5024542;28;20609;-58
2021/12/07 04:41:43;;;;;;;1.58;0.50;;;2.30;99.90;;;;;;5025653;28;20643;-57
2021/12/07 04:44:10;;;;;;;2.03;0.90;;;2.30;99.90;;;;;;5025574;28;20081;-58
2021/12/07 04:46:45;;;;;;;3.08;0.68;;;2.20;99.90;;;;;;5025139;28;20142;-57
2021/12/07 04:57:38;;;;;;;1.35;0.63;;;2.20;99.90;;;;;;5026015;28;20095;-57
2021/12/07 05:00:17;;;;;;;1.90;1.17;;;2.10;99.90;;;;;;5024374;28;20089;-57
2021/12/07 05:02:48;;;;;;;1.58;0.75;;;2.10;99.90;;;;;;5024058;28;20080;-57
2021/12/07 05:05:16;;;;;;;1.38;0.50;;;2.00;99.90;;;;;;5024991;28;20183;-58
2021/12/07 05:07:49;;;;;;;2.63;0.60;;;2.00;99.90;;;;;;5025588;28;20073;-57
2021/12/07 05:15:30;;;;;;;1.20;0.70;;;1.90;99.90;;;;;;5023935;28;20513;-57
2021/12/07 05:23:56;;;;;;;1.95;0.80;;;1.90;99.90;;;;;;5025530;28;20176;-58
2021/12/07 05:39:29;;;;;;;1.10;0.60;;;2.10;99.90;;;;;;5024230;28;20049;-57
2021/12/07 05:41:56;;;;;;;1.67;0.70;;;2.10;99.90;;;;;;5024675;28;20124;-57
2021/12/07 05:44:23;;;;;;;1.35;0.65;;;2.20;99.90;;;;;;5022419;28;20601;-58
2021/12/07 05:46:50;;;;;;;1.10;0.70;;;2.20;99.90;;;;;;5024947;28;20125;-56
2021/12/07 05:49:16;;;;;;;1.35;0.63;;;2.20;99.90;;;;;;5017619;28;20087;-57
2021/12/07 05:51:43;;;;;;;1.50;0.82;;;2.20;99.90;;;;;;5016499;28;20073;-57
2021/12/07 05:54:10;;;;;;;1.52;0.70;;;2.20;99.90;;;;;;5022601;28;20116;-57
2021/12/07 05:56:37;;;;;;;1.63;0.60;;;2.20;99.90;;;;;;5023747;28;20551;-57
2021/12/07 05:59:03;;;;;;;2.05;0.55;;;2.20;99.90;;;;;;5022754;28;20079;-57
2021/12/07 06:01:30;;;;;;;0.88;0.52;;;2.30;99.90;;;;;;5023602;28;20142;-58
2021/12/07 06:03:57;;;;;;;1.52;0.75;;;2.30;99.90;;;;;;5022754;28;20053;-59
2021/12/07 06:06:24;;;;;;;1.95;0.68;;;2.30;99.90;;;;;;5023400;28;20406;-59
2021/12/07 06:08:51;;;;;;;2.22;0.95;;;2.30;99.90;;;;;;5024226;28;20072;-60
2021/12/07 06:11:21;;;;;;;2.40;1.20;;;2.40;99.90;;;;;;5021886;28;20084;-59
2021/12/07 06:13:48;;;;;;;1.98;1.17;;;2.40;99.90;;;;;;5022426;28;20092;-59
2021/12/07 06:16:16;;;;;;;2.38;1.20;;;2.40;99.90;;;;;;5016898;28;20512;-59
2021/12/07 06:18:43;;;;;;;2.67;1.20;;;2.40;99.90;;;;;;5020682;28;20959;-59
2021/12/07 06:21:11;;;;;;;2.20;1.17;;;2.40;99.90;;;;;;5018323;28;20085;-58
2021/12/07 06:23:38;;;;;;;1.65;0.98;;;2.50;99.90;;;;;;5020241;28;20079;-59
2021/12/07 06:26:05;;;;;;;2.40;1.10;;;2.50;99.90;;;;;;5019334;28;20053;-59
2021/12/07 06:28:32;;;;;;;3.15;1.17;;;2.50;99.90;;;;;;5019574;28;20116;-59
2021/12/07 06:30:59;;;;;;;2.05;1.08;;;2.60;99.90;;;;;;5018321;28;20077;-58
2021/12/07 06:33:26;;;;;;;2.08;1.20;;;2.60;99.90;;;;;;5020664;28;20404;-59
2021/12/07 06:35:57;;;;;;;2.20;1.10;;;2.70;99.90;;;;;;5019879;28;20131;-57
2021/12/07 06:38:25;;;;;;;2.15;1.05;;;2.70;99.90;;;;;;5019795;28;20049;-59
2021/12/07 06:40:52;;;;;;;2.40;1.10;;;2.70;99.90;;;;;;5020797;28;20846;-59
2021/12/07 06:43:19;;;;;;;1.30;0.80;;;2.70;99.90;;;;;;5020355;28;20516;-59
2021/12/07 06:45:45;;;;;;;2.33;0.65;;;2.70;99.90;;;;;;5018335;28;20073;-58
2021/12/07 06:48:12;;;;;;;2.13;1.10;;;2.70;99.90;;;;;;5021171;28;20124;-58
2021/12/07 06:50:39;;;;;;;2.58;1.15;;;2.70;99.90;;;;;;5020591;28;20160;-58
2021/12/07 06:53:06;;;;;;;3.95;1.85;;;2.70;99.90;;;;;;5021205;28;20825;-59
2021/12/07 06:55:32;;;;;;;2.67;1.02;;;2.70;99.90;;;;;;5021433;28;20095;-58
2021/12/07 06:57:59;;;;;;;1.77;1.10;;;2.80;99.90;;;;;;5021731;28;20049;-58
2021/12/07 07:00:26;;;;;;;2.80;1.02;;;2.80;99.90;;;;;;5018560;28;20131;-56
2021/12/07 07:02:53;;;;;;;2.50;1.30;;;2.90;99.90;;;;;;5020168;28;20049;-58
2021/12/07 07:05:20;;;;;;;1.25;0.77;;;2.90;99.90;;;;;;5020589;28;20055;-58
2021/12/07 07:07:46;;;;;;;2.28;0.93;;;3.00;99.90;;;;;;5018391;28;20077;-56
2021/12/07 07:10:16;;;;;;;4.10;1.13;;;3.00;99.90;;;;;;5020117;28;20095;-57
2021/12/07 07:12:43;;;;;;;1.92;1.00;;;3.00;99.90;;;;;;5018758;28;20083;-58
2021/12/07 07:15:09;;;;;;;1.83;1.00;;;3.00;99.90;;;;;;5016855;28;20164;-58
2021/12/07 07:17:36;;;;;;;1.38;0.88;;;3.10;99.90;;;;;;5021287;28;20048;-58
2021/12/07 07:20:04;;;;;;;2.97;1.05;;;3.10;99.90;;;;;;5019546;28;20148;-57
2021/12/07 07:22:31;;;;;;;1.35;0.60;;;3.10;99.90;;;;;;5012649;28;20597;-58
2021/12/07 07:24:58;;;;;;;2.92;0.80;;;3.20;99.90;;;;;;5019714;28;20140;-58
2021/12/07 07:27:24;;;;;;;3.95;1.23;;;3.20;99.90;;;;;;5021320;28;20125;-58
2021/12/07 07:29:51;;;;;;;2.15;0.93;;;3.20;99.90;;;;;;5019590;28;20159;-57
2021/12/07 07:32:18;;;;;;;2.80;0.80;;;3.30;99.90;;;;;;5019550;28;20141;-58
2021/12/07 07:34:45;;;;;;;2.63;0.63;;;3.30;99.90;;;;;;5021033;28;20049;-58
2021/12/07 07:37:12;;;;;;;2.28;0.90;;;3.30;99.90;;;;;;5020696;28;20049;-58
2021/12/07 07:39:39;;;;;;;1.80;0.80;;;3.30;99.90;;;;;;5019108;28;20075;-58
2021/12/07 07:42:06;;;;;;;1.52;0.80;;;3.30;99.90;;;;;;5020501;28;20049;-58
2021/12/07 07:44:33;;;;;;;3.15;0.90;;;3.40;99.90;;;;;;5018827;28;20175;-58
2021/12/07 07:47:00;;;;;;;6.88;0.90;;;3.40;99.90;;;;;;5020612;28;20323;-58
2021/12/07 07:49:27;;;;;;;2.25;0.80;;;3.40;99.90;;;;;;5021039;28;20049;-58
2021/12/07 07:51:53;;;;;;;1.50;0.80;;;3.40;99.90;;;;;;5020511;28;20128;-58
2021/12/07 07:54:20;;;;;;;2.75;1.00;;;3.40;99.90;;;;;;5018842;28;20152;-55
2021/12/07 07:56:47;;;;;;;3.88;1.10;;;3.40;99.90;;;;;;5020054;28;20081;-57
2021/12/07 07:59:13;;;;;;;2.42;0.80;;;3.40;99.90;;;;;;5019366;28;20450;-56
2021/12/07 08:01:40;;;;;;;2.28;0.95;;;3.50;99.90;;;;;;5019998;28;20077;-58
2021/12/07 08:04:07;;;;;;;2.92;1.13;;;3.50;99.90;;;;;;5020146;28;20125;-56
2021/12/07 08:06:34;;;;;;;3.78;1.17;;;3.50;99.90;;;;;;5019724;28;20139;-57
2021/12/07 08:09:01;;;;;;;2.17;1.00;;;3.50;99.90;;;;;;5020382;28;20157;-58
2021/12/07 08:11:28;;;;;;;1.55;0.63;;;3.50;99.90;;;;;;5019656;28;20081;-58
2021/12/07 08:13:55;;;;;;;2.13;0.85;;;3.50;99.90;;;;;;5019637;28;20400;-58
2021/12/07 08:16:22;;;;;;;2.80;0.90;;;3.60;99.90;;;;;;5018866;28;20373;-54
2021/12/07 08:18:50;;;;;;;2.97;1.55;;;3.60;99.90;;;;;;5018434;28;20049;-57
2021/12/07 08:21:17;;;;;;;1.75;0.80;;;3.60;99.90;;;;;;5017577;28;20064;-57
2021/12/07 08:23:44;;;;;;;2.20;0.85;;;3.70;99.90;;;;;;5015495;28;20142;-58
2021/12/07 08:26:14;;;;;;;4.80;1.23;;;3.70;99.90;;;;;;5018965;28;20049;-59
2021/12/07 08:28:45;;;;;;;2.80;1.00;;;3.80;99.90;;;;;;5019598;28;20153;-59
2021/12/07 08:31:12;;;;;;;2.60;1.00;;;3.80;99.90;;;;;;5016248;28;20540;-58
2021/12/07 08:33:39;;;;;;;2.13;0.90;;;3.80;99.90;;;;;;5018635;28;20046;-56
2021/12/07 08:36:06;;;;;;;3.78;1.27;;;3.90;99.90;;;;;;5018708;28;20216;-58
2021/12/07 08:38:33;;;;;;;3.13;1.02;;;3.90;99.90;;;;;;5019864;28;20056;-59
2021/12/07 08:40:59;;;;;;;2.38;1.00;;;3.90;99.90;;;;;;5019327;28;20178;-58
2021/12/07 08:43:28;;;;;;;3.22;1.05;;;4.00;99.90;;;;;;5018420;28;20080;-58
2021/12/07 08:45:57;;;;;;;2.42;0.85;;;4.00;99.90;;;;;;5018145;28;20045;-59
2021/12/07 08:48:24;;;;;;;3.22;0.80;;;4.00;99.90;;;;;;5019472;28;20434;-59
2021/12/07 08:50:51;;;;;;;4.50;1.27;;;4.10;99.90;;;;;;5018574;28;20460;-58
2021/12/07 08:53:18;;;;;;;1.80;0.95;;;4.10;99.90;;;;;;5018601;28;20136;-58
2021/12/07 09:01:21;;;;;;;2.10;1.00;;;4.10;99.90;;;;;;5015698;28;20052;-58
2021/12/07 09:03:48;;;;;;;1.88;0.80;;;4.10;99.90;;;;;;5016332;28;20072;-59
2021/12/07 09:06:15;;;;;;;3.47;1.35;;;4.20;99.90;;;;;;5018365;28;20124;-58
2021/12/07 09:08:42;;;;;;;2.30;1.00;;;4.20;99.90;;;;;;5018736;28;20057;-58
2021/12/07 09:11:10;;;;;;;2.35;1.02;;;4.30;99.90;;;;;;5018122;28;20140;-59
2021/12/07 09:13:37;;;;;;;3.17;1.38;;;4.30;99.90;;;;;;5018587;28;20050;-58
2021/12/07 09:16:05;;;;;;;3.42;1.17;;;4.40;99.90;;;;;;5017342;28;20057;-58
2021/12/07 09:18:32;;;;;;;2.17;0.85;;;4.50;99.90;;;;;;5019059;28;20077;-58
2021/12/07 09:20:59;;;;;;;3.58;1.20;;;4.60;99.90;;;;;;5017519;28;20085;-58
2021/12/07 09:23:25;;;;;;;3.00;1.08;;;4.70;99.90;;;;;;5018755;28;20411;-59
2021/12/07 09:25:52;;;;;;;3.20;1.10;;;4.70;99.90;;;;;;5018993;28;20088;-58
2021/12/07 09:28:19;;;;;;;2.90;0.90;;;4.80;99.90;;;;;;5017160;28;20453;-59
2021/12/07 09:30:51;;;;;;;2.92;1.00;;;4.90;99.90;;;;;;5017145;28;20140;-58
2021/12/07 09:33:19;;;;;;;3.92;0.90;;;5.00;99.90;;;;;;5018654;28;20077;-58
2021/12/07 09:35:50;;;;;;;3.28;1.13;;;5.10;99.90;;;;;;5016966;28;20970;-58
2021/12/07 09:38:16;;;;;;;3.42;1.30;;;5.10;99.90;;;;;;5018154;28;20558;-58
2021/12/07 09:40:43;;;;;;;3.45;1.20;;;5.10;99.90;;;;;;5018079;28;20341;-59
2021/12/07 09:43:11;;;;;;;3.17;1.20;;;5.20;99.90;;;;;;5013925;28;20042;-59
2021/12/07 09:45:39;;;;;;;2.60;1.20;;;5.20;99.90;;;;;;5016546;28;20128;-58
2021/12/07 09:48:06;;;;;;;2.10;1.30;;;5.20;99.90;;;;;;5017761;28;21324;-58
2021/12/07 09:50:34;;;;;;;2.97;0.90;;;5.20;99.90;;;;;;5018101;28;20088;-58
2021/12/07 09:53:02;;;;;;;4.13;1.58;;;5.30;99.90;;;;;;5018491;28;20449;-59
2021/12/07 09:55:29;;;;;;;2.63;1.00;;;5.30;99.90;;;;;;5017762;28;20934;-58
2021/12/07 09:57:56;;;;;;;3.85;1.00;;;5.30;99.90;;;;;;5015119;28;20697;-58
2021/12/07 10:00:25;;;;;;;3.35;1.65;;;5.40;99.90;;;;;;5016770;28;20072;-58
2021/12/07 10:02:52;;;;;;;2.80;1.08;;;5.50;99.90;;;;;;5017450;28;20164;-58
2021/12/07 10:05:19;;;;;;;2.97;0.95;;;5.60;99.90;;;;;;5017610;28;20054;-59
2021/12/07 10:07:47;;;;;;;2.75;1.27;;;5.60;99.90;;;;;;5014111;28;20861;-58
2021/12/07 10:10:34;;;;;;;2.05;0.80;;;5.60;99.90;;;;;;5018164;28;20053;-59
2021/12/07 10:13:01;;;;;;;2.42;1.08;;;5.70;99.90;;;;;;5016015;28;20133;-58
2021/12/07 10:15:28;;;;;;;5.03;1.85;;;5.80;99.90;;;;;;5016680;28;20060;-58
2021/12/07 10:18:19;;;;;;;3.60;1.70;;;5.90;99.90;;;;;;5017889;28;20142;-59
2021/12/07 10:21:17;;;;;;;4.93;1.27;;;6.00;99.90;;;;;;5016408;28;20137;-58
2021/12/07 10:23:49;;;;;;;4.55;1.00;;;6.10;99.90;;;;;;5016673;28;20073;-59
2021/12/07 10:26:20;;;;;;;3.67;1.45;;;6.10;99.90;;;;;;5017871;28;20050;-59
2021/12/07 10:28:56;;;;;;;3.42;1.20;;;6.20;99.90;;;;;;5018543;28;20073;-58
2021/12/07 10:31:34;;;;;;;4.05;1.83;;;6.30;99.90;;;;;;5017237;28;20476;-59
2021/12/07 10:34:18;;;;;;;6.13;1.77;;;6.30;99.90;;;;;;5018316;28;20413;-59
2021/12/07 10:36:47;;;;;;;4.72;1.48;;;6.40;99.90;;;;;;5012803;28;20103;-58
2021/12/07 10:39:27;;;;;;;5.70;2.08;;;6.50;99.90;;;;;;5017948;28;20045;-59
2021/12/07 10:42:02;;;;;;;8.00;2.25;;;6.50;99.90;;;;;;5009392;28;20080;-58
2021/12/07 10:44:48;;;;;;;3.58;1.38;;;6.60;99.90;;;;;;5014924;28;20065;-58
2021/12/07 10:47:17;;;;;;;4.75;1.50;;;6.70;99.90;;;;;;5022674;28;20132;-58
2021/12/07 10:49:50;;;;;;;7.43;1.75;;;6.80;99.90;;;;;;5022244;28;20053;-59
2021/12/07 10:52:18;;;;;;;7.68;1.77;;;6.80;99.90;;;;;;5022471;28;20045;-59
2021/12/07 10:54:50;;;;;;;4.20;1.13;;;6.80;99.90;;;;;;5020503;28;20132;-59
2021/12/07 10:57:21;;;;;;;4.00;1.85;;;6.90;99.90;;;;;;5020139;28;20115;-58
2021/12/07 10:59:55;;;;;;;5.05;1.63;;;6.90;99.90;;;;;;5021076;28;20693;-58
2021/12/07 11:02:22;;;;;;;6.03;2.33;;;7.00;99.90;;;;;;5022255;28;20061;-59
2021/12/07 11:04:49;;;;;;;3.58;1.50;;;7.00;99.90;;;;;;5020839;28;20053;-58
2021/12/07 11:07:26;;;;;;;4.50;1.30;;;7.00;99.90;;;;;;5022522;28;20045;-59
2021/12/07 11:10:23;;;;;;;4.95;1.40;;;7.10;99.90;;;;;;5021693;28;20468;-59
2021/12/07 11:15:31;;;;;;;3.00;1.02;;;7.10;99.90;;;;;;5020399;28;20132;-59
2021/12/07 11:18:01;;;;;;;3.30;1.45;;;7.20;99.90;;;;;;5022301;28;20859;-59
2021/12/07 11:20:28;;;;;;;4.00;1.00;;;7.20;99.90;;;;;;5019631;28;20097;-58
2021/12/07 11:23:01;;;;;;;3.20;0.90;;;7.20;99.90;;;;;;5021221;28;20512;-59
2021/12/07 11:25:53;;;;;;;7.47;1.73;;;7.20;99.90;;;;;;5019741;28;20490;-58
2021/12/07 11:31:40;;;;;;;4.45;1.25;;;7.30;99.90;;;;;;5018918;28;20049;-57
2021/12/07 11:34:21;;;;;;;5.70;1.50;;;7.40;99.90;;;;;;5019773;28;20065;-57
2021/12/07 11:36:55;;;;;;;3.30;1.27;;;7.50;99.90;;;;;;5020498;28;20159;-58
2021/12/07 11:39:31;;;;;;;4.07;1.63;;;7.50;99.90;;;;;;5009669;28;20531;-58
2021/12/07 11:42:05;;;;;;;5.68;1.88;;;7.50;99.90;;;;;;5020951;28;20136;-58
2021/12/07 11:44:36;;;;;;;6.07;1.52;;;7.50;99.90;;;;;;5019504;28;20075;-58
2021/12/07 11:47:03;;;;;;;5.38;1.40;;;7.40;99.90;;;;;;5021938;28;20085;-58
2021/12/07 11:49:32;;;;;;;5.35;1.60;;;7.40;99.90;;;;;;5021388;28;20060;-58
2021/12/07 11:52:01;;;;;;;3.35;0.98;;;7.30;99.90;;;;;;5021393;28;20386;-58
2021/12/07 11:54:33;;;;;;;4.18;1.27;;;7.30;99.90;;;;;;5021243;28;20093;-58
2021/12/07 11:57:01;;;;;;;4.93;1.25;;;7.30;99.90;;;;;;5017305;28;20570;-58
2021/12/07 11:59:27;;;;;;;4.80;1.30;;;7.20;99.90;;;;;;5018404;28;20081;-57
2021/12/07 12:01:54;;;;;;;4.82;1.60;;;7.20;99.90;;;;;;5021757;28;20853;-58
2021/12/07 12:04:22;;;;;;;4.75;1.33;;;7.20;99.90;;;;;;5019186;28;20045;-58
2021/12/07 12:06:50;;;;;;;4.05;1.20;;;7.20;99.90;;;;;;5020978;28;20516;-58
2021/12/07 12:09:17;;;;;;;3.05;1.25;;;7.20;99.90;;;;;;5019523;28;20087;-58
2021/12/07 12:11:59;;;;;;;3.85;1.58;;;7.20;99.90;;;;;;5020033;28;20545;-58
2021/12/07 12:14:36;;;;;;;4.03;1.42;;;7.20;99.90;;;;;;5018222;28;20478;-57
2021/12/07 12:17:20;;;;;;;5.05;1.35;;;7.20;99.90;;;;;;5021437;28;20050;-58
2021/12/07 12:20:06;;;;;;;6.80;1.42;;;7.20;99.90;;;;;;5014557;28;20475;-57
2021/12/07 12:22:54;;;;;;;3.22;1.20;;;7.20;99.90;;;;;;5019294;28;20045;-58
2021/12/07 12:25:22;;;;;;;3.95;1.33;;;7.20;99.90;;;;;;5020066;28;20481;-58
2021/12/07 12:27:50;;;;;;;4.43;1.45;;;7.20;99.90;;;;;;5020145;28;20144;-57
2021/12/07 12:30:21;;;;;;;4.93;1.90;;;7.20;99.90;;;;;;5017833;28;20079;-58
2021/12/07 12:32:54;;;;;;;;;;;7.20;99.90;;;;;;5016035;28;20142;-58
2021/12/07 12:35:31;;;;;;;3.10;1.13;;;7.10;99.90;;;;;;5018460;28;20005;-58
2021/12/07 12:37:58;;;;;;;5.03;1.10;;;7.10;99.90;;;;;;5019018;28;20056;-57
2021/12/07 12:40:28;;;;;;;6.10;1.73;;;7.10;99.90;;;;;;5015094;28;20088;-57
2021/12/07 12:42:57;;;;;;;4.30;1.75;;;7.10;99.90;;;;;;5017976;28;20549;-58
2021/12/07 12:45:30;;;;;;;4.30;1.60;;;7.10;99.90;;;;;;5006119;28;20156;-58
2021/12/07 12:48:01;;;;;;;4.13;1.52;;;7.10;99.90;;;;;;5018315;28;20448;-58
2021/12/07 12:50:55;;;;;;;4.57;1.20;;;7.10;99.90;;;;;;5017180;28;20053;-57
2021/12/07 12:53:30;;;;;;;3.38;1.20;;;7.20;99.90;;;;;;5015870;28;20125;-58
2021/12/07 12:56:00;;;;;;;4.55;1.77;;;7.20;99.90;;;;;;5019923;28;20053;-57
2021/12/07 12:58:31;;;;;;;4.80;1.60;;;7.20;99.90;;;;;;5017562;28;20117;-58
2021/12/07 13:01:04;;;;;;;3.63;1.38;;;7.20;99.90;;;;;;5016736;28;20053;-55
2021/12/07 13:04:06;;;;;;;2.80;1.42;;;7.20;99.90;;;;;;5014821;28;20052;-58
2021/12/07 13:06:37;;;;;;;3.72;1.52;;;7.20;99.90;;;;;;5017510;28;20522;-58
2021/12/07 13:09:19;;;;;;;3.63;1.40;;;7.20;99.90;;;;;;5018992;28;20049;-58
2021/12/07 13:11:58;;;;;;;4.15;1.63;;;7.20;99.90;;;;;;5019679;28;20049;-58
2021/12/07 13:14:25;;;;;;;3.50;1.20;;;7.30;99.90;;;;;;5018961;28;20091;-55
2021/12/07 13:17:13;;;;;;;7.15;1.60;;;7.30;99.90;;;;;;5019749;28;20061;-58
2021/12/07 13:20:07;;;;;;;5.57;1.45;;;7.30;99.90;;;;;;5019185;28;20049;-58
2021/12/07 13:22:52;;;;;;;5.53;1.70;;;7.30;99.90;;;;;;5019812;28;20056;-58
2021/12/07 13:25:48;;;;;;;4.38;1.30;;;7.30;99.90;;;;;;5018645;28;20092;-57
2021/12/07 13:28:21;;;;;;;2.88;1.25;;;7.40;99.90;;;;;;5017971;28;20072;-58
2021/12/07 13:31:08;;;;;;;4.10;2.13;;;7.40;99.90;;;;;;5018192;28;20057;-59
2021/12/07 13:33:49;;;;;;;3.70;1.33;;;7.40;99.90;;;;;;5010624;28;20077;-58
2021/12/07 13:36:34;;;;;;;4.38;1.42;;;7.40;99.90;;;;;;5018497;28;20120;-58
2021/12/07 13:39:22;;;;;;;5.72;2.30;;;7.50;99.90;;;;;;5006022;28;20106;-58
2021/12/07 13:42:00;;;;;;;5.57;2.13;;;7.50;99.90;;;;;;5005282;28;20144;-58
2021/12/07 13:44:27;;;;;;;4.40;1.38;;;7.50;99.90;;;;;;5017537;28;20133;-56
2021/12/07 13:46:56;;;;;;;5.35;2.13;;;7.60;99.90;;;;;;5018879;28;20100;-58
2021/12/07 13:49:22;;;;;;;5.00;1.77;;;7.60;99.90;;;;;;5019241;28;20128;-57
2021/12/07 13:51:49;;;;;;;5.18;1.98;;;7.60;99.90;;;;;;5019450;28;20060;-57
2021/12/07 13:54:18;;;;;;;3.17;1.65;;;7.60;99.90;;;;;;5019011;28;20137;-58
2021/12/07 13:56:45;;;;;;;4.85;1.67;;;7.60;99.90;;;;;;5016738;28;20188;-58
2021/12/07 13:59:14;;;;;;;5.55;1.70;;;7.60;99.90;;;;;;5015557;28;20129;-56
2021/12/07 14:01:47;;;;;;;4.07;1.70;;;7.60;99.90;;;;;;5017049;28;20114;-58
2021/12/07 14:04:14;;;;;;;5.20;1.35;;;7.60;99.90;;;;;;5017496;28;20057;-55
2021/12/07 14:06:48;;;;;;;3.40;1.30;;;7.70;99.90;;;;;;5018329;28;20687;-57
2021/12/07 14:09:15;;;;;;;4.03;1.50;;;7.70;99.90;;;;;;5017470;28;20554;-57
2021/12/07 14:11:57;;;;;;;2.85;1.73;;;7.70;99.90;;;;;;5017019;28;20136;-57
2021/12/07 14:14:25;;;;;;;4.53;1.25;;;7.80;99.90;;;;;;5016852;28;20145;-57
2021/12/07 14:16:57;;;;;;;5.22;1.52;;;7.90;99.90;;;;;;5018035;28;20049;-58
2021/12/07 14:19:26;;;;;;;5.22;1.90;;;7.90;99.90;;;;;;5003706;28;20412;-58
2021/12/07 14:21:56;;;;;;;4.32;1.25;;;8.00;99.90;;;;;;5019507;28;20045;-58
2021/12/07 14:24:23;;;;;;;2.10;1.05;;;8.00;99.90;;;;;;5022249;28;20049;-58
2021/12/07 14:26:51;;;;;;;4.15;1.30;;;8.10;99.90;;;;;;5022530;28;20088;-57
2021/12/07 14:29:23;;;;;;;4.07;1.83;;;8.20;99.90;;;;;;5021950;28;20408;-57
2021/12/07 14:31:58;;;;;;;4.38;1.10;;;8.10;99.90;;;;;;5021007;28;20434;-57
2021/12/07 14:34:32;;;;;;;2.83;1.55;;;8.00;99.90;;;;;;5021155;28;20052;-58
2021/12/07 14:37:06;;;;;;;4.45;1.63;;;7.90;99.90;;;;;;5021936;28;20107;-58
2021/12/07 14:39:36;;;;;;;3.75;1.25;;;7.80;99.90;;;;;;5022706;28;20049;-58
2021/12/07 14:42:05;;;;;;;3.88;1.45;;;7.80;99.90;;;;;;5022487;28;20084;-58
2021/12/07 14:44:34;;;;;;;3.75;1.40;;;7.80;99.90;;;;;;5020301;28;20813;-57
2021/12/07 14:47:05;;;;;;;4.60;1.45;;;7.80;99.90;;;;;;5022790;28;20144;-58
2021/12/07 14:49:33;;;;;;;5.07;1.33;;;7.80;99.90;;;;;;5021162;28;20807;-58
2021/12/07 14:52:00;;;;;;;4.93;1.70;;;7.70;99.90;;;;;;5022440;28;20602;-58
2021/12/07 14:54:27;;;;;;;5.10;1.75;;;7.70;99.90;;;;;;5021407;28;20045;-58
2021/12/07 14:56:55;;;;;;;3.55;1.52;;;7.80;99.90;;;;;;5020491;28;20057;-58
2021/12/07 14:59:22;;;;;;;3.30;1.33;;;7.80;99.90;;;;;;5021802;28;20045;-56
2021/12/07 15:01:56;;;;;;;4.57;1.60;;;7.90;99.90;;;;;;5022011;28;20080;-58